sensor_id;sensor_type;location;lat;lon;timestamp;temperature;humidity
2889;DHT22;1453;42.708;23.282;2022-09-20T00:01:15;10.20;99.90
2889;DHT22;1453;42.708;23.282;2022-09-20T00:03:50;10.20;99.90
2889;DHT22;1453;42.708;23.282;2022-09-20T00:06:21;10.20;99.90
2889;DHT22;1453;42.708;23.282;2022-09-20T00:08:48;10.20;99.90
2889;DHT22;1453;42.708;23.282;2022-09-20T00:11:23;9.90;99.90
2889;DHT22;1453;42.708;23.282;2022-09-20T00:13:55;10.10;99.90
2889;DHT22;1453;42.708;23.282;2022-09-20T00:16:25;10.10;99.90
2889;DHT22;1453;42.708;23.282;2022-09-20T00:18:54;10.00;99.90
2889;DHT22;1453;42.708;23.282;2022-09-20T00:21:23;9.80;99.90
2889;DHT22;1453;42.708;23.282;2022-09-20T00:23:51;9.70;99.90
2889;DHT22;1453;42.708;23.282;2022-09-20T00:26:17;9.60;99.90
2889;DHT22;1453;42.708;23.282;2022-09-20T00:28:44;9.60;99.90
2889;DHT22;1453;42.708;23.282;2022-09-20T00:31:12;9.50;99.90
2889;DHT22;1453;42.708;23.282;2022-09-20T00:33:38;9.70;99.90
2889;DHT22;1453;42.708;23.282;2022-09-20T00:36:22;9.70;99.90
2889;DHT22;1453;42.708;23.282;2022-09-20T00:38:48;9.80;99.90
2889;DHT22;1453;42.708;23.282;2022-09-20T00:41:15;9.80;99.90
2889;DHT22;1453;42.708;23.282;2022-09-20T00:43:43;9.90;99.90
2889;DHT22;1453;42.708;23.282;2022-09-20T00:49:25;10.00;99.90
2889;DHT22;1453;42.708;23.282;2022-09-20T00:51:59;10.00;99.90
2889;DHT22;1453;42.708;23.282;2022-09-20T00:54:26;10.10;99.90
2889;DHT22;1453;42.708;23.282;2022-09-20T00:56:54;10.10;99.90
2889;DHT22;1453;42.708;23.282;2022-09-20T00:59:29;10.00;99.90
2889;DHT22;1453;42.708;23.282;2022-09-20T01:02:33;9.80;99.90
2889;DHT22;1453;42.708;23.282;2022-09-20T01:05:01;9.60;99.90
2889;DHT22;1453;42.708;23.282;2022-09-20T01:07:27;9.60;99.90
2889;DHT22;1453;42.708;23.282;2022-09-20T01:09:54;9.60;99.90
2889;DHT22;1453;42.708;23.282;2022-09-20T01:12:22;9.50;99.90
2889;DHT22;1453;42.708;23.282;2022-09-20T01:14:51;9.60;99.90
2889;DHT22;1453;42.708;23.282;2022-09-20T01:17:21;9.50;99.90
2889;DHT22;1453;42.708;23.282;2022-09-20T01:26:03;9.80;99.90
2889;DHT22;1453;42.708;23.282;2022-09-20T01:28:31;9.80;99.90
2889;DHT22;1453;42.708;23.282;2022-09-20T01:31:09;9.60;99.90
2889;DHT22;1453;42.708;23.282;2022-09-20T01:36:29;10.20;99.90
2889;DHT22;1453;42.708;23.282;2022-09-20T01:42:04;9.80;99.90
2889;DHT22;1453;42.708;23.282;2022-09-20T01:53:07;9.40;99.90
2889;DHT22;1453;42.708;23.282;2022-09-20T02:05:26;9.30;99.90
2889;DHT22;1453;42.708;23.282;2022-09-20T02:11:04;9.10;99.90
2889;DHT22;1453;42.708;23.282;2022-09-20T02:16:36;9.30;99.90
2889;DHT22;1453;42.708;23.282;2022-09-20T02:22:25;9.20;99.90
2889;DHT22;1453;42.708;23.282;2022-09-20T02:24:59;8.90;99.90
2889;DHT22;1453;42.708;23.282;2022-09-20T02:33:56;8.80;99.90
2889;DHT22;1453;42.708;23.282;2022-09-20T02:39:35;8.50;99.90
2889;DHT22;1453;42.708;23.282;2022-09-20T02:42:43;8.40;99.90
2889;DHT22;1453;42.708;23.282;2022-09-20T02:45:32;8.30;99.90
2889;DHT22;1453;42.708;23.282;2022-09-20T02:48:05;8.30;99.90
2889;DHT22;1453;42.708;23.282;2022-09-20T02:50:48;8.30;99.90
2889;DHT22;1453;42.708;23.282;2022-09-20T02:54:32;8.30;99.90
2889;DHT22;1453;42.708;23.282;2022-09-20T02:56:44;8.40;99.90
2889;DHT22;1453;42.708;23.282;2022-09-20T03:11:50;8.10;99.90
2889;DHT22;1453;42.708;23.282;2022-09-20T03:14:44;8.10;99.90
2889;DHT22;1453;42.708;23.282;2022-09-20T03:17:29;8.10;99.90
2889;DHT22;1453;42.708;23.282;2022-09-20T03:23:04;8.10;99.90
2889;DHT22;1453;42.708;23.282;2022-09-20T03:28:58;7.90;99.90
2889;DHT22;1453;42.708;23.282;2022-09-20T03:42:52;7.60;99.90
2889;DHT22;1453;42.708;23.282;2022-09-20T03:45:59;7.70;99.90
2889;DHT22;1453;42.708;23.282;2022-09-20T03:55:13;7.70;99.90
2889;DHT22;1453;42.708;23.282;2022-09-20T04:00:23;7.80;99.90
2889;DHT22;1453;42.708;23.282;2022-09-20T04:03:16;7.90;99.90
2889;DHT22;1453;42.708;23.282;2022-09-20T04:18:57;7.60;99.90
2889;DHT22;1453;42.708;23.282;2022-09-20T04:21:31;7.50;99.90
2889;DHT22;1453;42.708;23.282;2022-09-20T04:27:03;7.60;99.90
2889;DHT22;1453;42.708;23.282;2022-09-20T04:29:58;7.60;99.90
2889;DHT22;1453;42.708;23.282;2022-09-20T04:32:43;7.70;99.90
2889;DHT22;1453;42.708;23.282;2022-09-20T04:36:22;7.50;99.90
2889;DHT22;1453;42.708;23.282;2022-09-20T04:38:54;7.60;99.90
2889;DHT22;1453;42.708;23.282;2022-09-20T04:57:36;8.10;99.90
2889;DHT22;1453;42.708;23.282;2022-09-20T05:00:02;8.10;99.90
2889;DHT22;1453;42.708;23.282;2022-09-20T05:12:00;8.50;99.90
2889;DHT22;1453;42.708;23.282;2022-09-20T05:27:51;8.80;99.90
2889;DHT22;1453;42.708;23.282;2022-09-20T05:30:44;9.20;99.90
2889;DHT22;1453;42.708;23.282;2022-09-20T05:33:21;9.20;99.90
2889;DHT22;1453;42.708;23.282;2022-09-20T05:39:30;9.20;99.90
2889;DHT22;1453;42.708;23.282;2022-09-20T05:42:22;9.20;99.90
2889;DHT22;1453;42.708;23.282;2022-09-20T05:45:31;9.30;99.90
2889;DHT22;1453;42.708;23.282;2022-09-20T05:53:45;9.40;99.90
2889;DHT22;1453;42.708;23.282;2022-09-20T05:56:44;9.50;99.90
2889;DHT22;1453;42.708;23.282;2022-09-20T06:11:47;9.90;99.90
2889;DHT22;1453;42.708;23.282;2022-09-20T06:23:58;10.00;99.90
2889;DHT22;1453;42.708;23.282;2022-09-20T06:26:28;10.90;99.90
2889;DHT22;1453;42.708;23.282;2022-09-20T06:29:10;11.60;99.90
2889;DHT22;1453;42.708;23.282;2022-09-20T06:31:38;12.60;99.90
2889;DHT22;1453;42.708;23.282;2022-09-20T06:34:12;12.90;99.90
2889;DHT22;1453;42.708;23.282;2022-09-20T06:36:43;13.50;99.90
2889;DHT22;1453;42.708;23.282;2022-09-20T06:39:58;13.50;99.90
2889;DHT22;1453;42.708;23.282;2022-09-20T06:42:51;13.90;99.90
2889;DHT22;1453;42.708;23.282;2022-09-20T06:45:18;14.10;99.90
2889;DHT22;1453;42.708;23.282;2022-09-20T06:47:44;14.20;99.90
2889;DHT22;1453;42.708;23.282;2022-09-20T06:50:17;14.60;99.90
2889;DHT22;1453;42.708;23.282;2022-09-20T06:52:44;14.80;99.90
2889;DHT22;1453;42.708;23.282;2022-09-20T06:55:24;15.20;99.90
2889;DHT22;1453;42.708;23.282;2022-09-20T06:57:53;15.40;99.90
2889;DHT22;1453;42.708;23.282;2022-09-20T07:00:19;15.40;99.90
2889;DHT22;1453;42.708;23.282;2022-09-20T07:02:45;15.20;99.90
2889;DHT22;1453;42.708;23.282;2022-09-20T07:05:15;15.20;99.40
2889;DHT22;1453;42.708;23.282;2022-09-20T07:07:42;15.10;99.80
2889;DHT22;1453;42.708;23.282;2022-09-20T07:10:11;15.10;99.50
2889;DHT22;1453;42.708;23.282;2022-09-20T07:12:38;15.70;99.50
2889;DHT22;1453;42.708;23.282;2022-09-20T07:15:04;15.90;96.20
2889;DHT22;1453;42.708;23.282;2022-09-20T07:17:30;16.00;96.50
2889;DHT22;1453;42.708;23.282;2022-09-20T07:19:56;16.20;95.00
2889;DHT22;1453;42.708;23.282;2022-09-20T07:22:22;16.10;95.60
2889;DHT22;1453;42.708;23.282;2022-09-20T07:24:48;16.30;94.60
2889;DHT22;1453;42.708;23.282;2022-09-20T07:27:14;16.20;94.60
2889;DHT22;1453;42.708;23.282;2022-09-20T07:29:40;16.30;94.20
2889;DHT22;1453;42.708;23.282;2022-09-20T07:32:06;16.00;95.40
2889;DHT22;1453;42.708;23.282;2022-09-20T07:34:32;16.20;95.80
2889;DHT22;1453;42.708;23.282;2022-09-20T07:36:58;17.60;93.50
2889;DHT22;1453;42.708;23.282;2022-09-20T07:39:25;17.40;92.10
2889;DHT22;1453;42.708;23.282;2022-09-20T07:41:51;16.80;92.40
2889;DHT22;1453;42.708;23.282;2022-09-20T07:44:17;17.10;92.50
2889;DHT22;1453;42.708;23.282;2022-09-20T07:46:50;17.80;91.30
2889;DHT22;1453;42.708;23.282;2022-09-20T07:49:17;18.50;88.00
2889;DHT22;1453;42.708;23.282;2022-09-20T07:51:43;18.30;85.10
2889;DHT22;1453;42.708;23.282;2022-09-20T07:54:09;17.60;87.10
2889;DHT22;1453;42.708;23.282;2022-09-20T07:56:35;17.60;86.10
2889;DHT22;1453;42.708;23.282;2022-09-20T07:59:01;17.60;85.80
2889;DHT22;1453;42.708;23.282;2022-09-20T08:01:26;18.00;83.80
2889;DHT22;1453;42.708;23.282;2022-09-20T08:03:52;17.40;82.50
2889;DHT22;1453;42.708;23.282;2022-09-20T08:06:19;18.00;81.60
2889;DHT22;1453;42.708;23.282;2022-09-20T08:08:46;15.90;88.20
2889;DHT22;1453;42.708;23.282;2022-09-20T08:11:21;17.30;87.80
2889;DHT22;1453;42.708;23.282;2022-09-20T08:13:52;18.10;87.00
2889;DHT22;1453;42.708;23.282;2022-09-20T08:16:19;18.00;81.40
2889;DHT22;1453;42.708;23.282;2022-09-20T08:18:47;18.40;79.40
2889;DHT22;1453;42.708;23.282;2022-09-20T08:21:14;18.80;77.50
2889;DHT22;1453;42.708;23.282;2022-09-20T08:23:43;19.90;74.90
2889;DHT22;1453;42.708;23.282;2022-09-20T08:26:13;19.90;69.20
2889;DHT22;1453;42.708;23.282;2022-09-20T08:28:46;20.00;67.10
2889;DHT22;1453;42.708;23.282;2022-09-20T08:31:16;19.40;66.70
2889;DHT22;1453;42.708;23.282;2022-09-20T08:33:46;16.10;73.20
2889;DHT22;1453;42.708;23.282;2022-09-20T08:36:15;14.40;81.60
2889;DHT22;1453;42.708;23.282;2022-09-20T08:38:43;14.50;81.80
2889;DHT22;1453;42.708;23.282;2022-09-20T08:44:13;16.40;78.20
2889;DHT22;1453;42.708;23.282;2022-09-20T08:46:49;15.50;78.00
2889;DHT22;1453;42.708;23.282;2022-09-20T08:49:24;17.00;74.30
2889;DHT22;1453;42.708;23.282;2022-09-20T08:51:52;17.70;71.20
2889;DHT22;1453;42.708;23.282;2022-09-20T08:54:18;17.60;70.00
2889;DHT22;1453;42.708;23.282;2022-09-20T08:56:44;17.00;72.10
2889;DHT22;1453;42.708;23.282;2022-09-20T08:59:18;16.00;78.30
2889;DHT22;1453;42.708;23.282;2022-09-20T09:01:46;15.80;79.80
2889;DHT22;1453;42.708;23.282;2022-09-20T09:04:21;15.70;81.50
2889;DHT22;1453;42.708;23.282;2022-09-20T09:06:51;16.10;79.40
2889;DHT22;1453;42.708;23.282;2022-09-20T09:09:22;16.00;80.80
2889;DHT22;1453;42.708;23.282;2022-09-20T09:11:51;16.40;79.90
2889;DHT22;1453;42.708;23.282;2022-09-20T09:14:27;17.40;76.70
2889;DHT22;1453;42.708;23.282;2022-09-20T09:17:15;18.20;72.00
2889;DHT22;1453;42.708;23.282;2022-09-20T09:19:46;18.60;71.30
2889;DHT22;1453;42.708;23.282;2022-09-20T09:22:42;18.60;68.70
2889;DHT22;1453;42.708;23.282;2022-09-20T09:25:30;17.50;70.50
2889;DHT22;1453;42.708;23.282;2022-09-20T09:38:32;17.20;72.10
2889;DHT22;1453;42.708;23.282;2022-09-20T09:41:31;17.70;71.70
2889;DHT22;1453;42.708;23.282;2022-09-20T09:44:02;17.00;71.30
2889;DHT22;1453;42.708;23.282;2022-09-20T09:46:37;16.70;74.00
2889;DHT22;1453;42.708;23.282;2022-09-20T09:52:03;16.10;74.80
2889;DHT22;1453;42.708;23.282;2022-09-20T09:54:36;16.50;74.90
2889;DHT22;1453;42.708;23.282;2022-09-20T10:02:59;18.70;65.60
2889;DHT22;1453;42.708;23.282;2022-09-20T10:17:39;17.50;70.10
2889;DHT22;1453;42.708;23.282;2022-09-20T10:20:39;18.40;66.60
2889;DHT22;1453;42.708;23.282;2022-09-20T10:23:26;17.60;69.60
2889;DHT22;1453;42.708;23.282;2022-09-20T10:26:35;17.90;67.40
2889;DHT22;1453;42.708;23.282;2022-09-20T10:29:41;17.70;66.60
2889;DHT22;1453;42.708;23.282;2022-09-20T10:38:15;19.90;63.90
2889;DHT22;1453;42.708;23.282;2022-09-20T10:59:06;20.10;59.40
2889;DHT22;1453;42.708;23.282;2022-09-20T11:10:24;19.90;59.30
2889;DHT22;1453;42.708;23.282;2022-09-20T11:13:05;20.50;58.60
2889;DHT22;1453;42.708;23.282;2022-09-20T11:15:43;20.30;56.40
2889;DHT22;1453;42.708;23.282;2022-09-20T11:18:19;19.30;57.20
2889;DHT22;1453;42.708;23.282;2022-09-20T11:21:17;19.60;58.50
2889;DHT22;1453;42.708;23.282;2022-09-20T11:27:03;19.90;56.60
2889;DHT22;1453;42.708;23.282;2022-09-20T11:32:13;20.20;57.90
2889;DHT22;1453;42.708;23.282;2022-09-20T11:34:54;20.10;56.80
2889;DHT22;1453;42.708;23.282;2022-09-20T11:37:31;20.10;58.30
2889;DHT22;1453;42.708;23.282;2022-09-20T11:40:28;21.40;56.40
2889;DHT22;1453;42.708;23.282;2022-09-20T11:43:00;20.90;56.10
2889;DHT22;1453;42.708;23.282;2022-09-20T11:45:31;20.30;58.30
2889;DHT22;1453;42.708;23.282;2022-09-20T11:49:04;21.40;57.60
2889;DHT22;1453;42.708;23.282;2022-09-20T11:51:48;20.40;56.20
2889;DHT22;1453;42.708;23.282;2022-09-20T11:57:05;19.60;60.00
2889;DHT22;1453;42.708;23.282;2022-09-20T11:59:34;20.60;57.80
2889;DHT22;1453;42.708;23.282;2022-09-20T12:02:16;19.80;59.30
2889;DHT22;1453;42.708;23.282;2022-09-20T12:04:47;19.30;59.30
2889;DHT22;1453;42.708;23.282;2022-09-20T12:10:35;19.90;58.80
2889;DHT22;1453;42.708;23.282;2022-09-20T12:13:04;20.30;59.20
2889;DHT22;1453;42.708;23.282;2022-09-20T12:15:37;20.70;57.10
2889;DHT22;1453;42.708;23.282;2022-09-20T12:28:42;18.40;58.60
2889;DHT22;1453;42.708;23.282;2022-09-20T12:39:37;18.90;58.10
2889;DHT22;1453;42.708;23.282;2022-09-20T12:49:50;20.00;55.50
2889;DHT22;1453;42.708;23.282;2022-09-20T12:52:48;19.90;57.90
2889;DHT22;1453;42.708;23.282;2022-09-20T13:07:51;19.80;55.00
2889;DHT22;1453;42.708;23.282;2022-09-20T13:10:25;20.30;53.20
2889;DHT22;1453;42.708;23.282;2022-09-20T13:13:13;19.70;54.10
2889;DHT22;1453;42.708;23.282;2022-09-20T13:15:48;20.40;53.90
2889;DHT22;1453;42.708;23.282;2022-09-20T13:18:19;20.10;53.10
2889;DHT22;1453;42.708;23.282;2022-09-20T13:20:47;19.80;52.50
2889;DHT22;1453;42.708;23.282;2022-09-20T13:23:24;19.50;52.80
2889;DHT22;1453;42.708;23.282;2022-09-20T13:25:56;19.40;53.60
2889;DHT22;1453;42.708;23.282;2022-09-20T13:28:48;19.60;52.90
2889;DHT22;1453;42.708;23.282;2022-09-20T13:31:29;19.50;52.60
2889;DHT22;1453;42.708;23.282;2022-09-20T13:34:24;20.70;53.30
2889;DHT22;1453;42.708;23.282;2022-09-20T13:36:56;19.90;53.60
2889;DHT22;1453;42.708;23.282;2022-09-20T13:39:37;19.70;52.70
2889;DHT22;1453;42.708;23.282;2022-09-20T13:42:15;19.80;53.30
2889;DHT22;1453;42.708;23.282;2022-09-20T13:44:47;19.80;53.10
2889;DHT22;1453;42.708;23.282;2022-09-20T13:47:26;19.70;53.10
2889;DHT22;1453;42.708;23.282;2022-09-20T13:50:34;19.30;53.00
2889;DHT22;1453;42.708;23.282;2022-09-20T13:53:12;19.20;53.40
2889;DHT22;1453;42.708;23.282;2022-09-20T13:55:42;19.10;54.00
2889;DHT22;1453;42.708;23.282;2022-09-20T13:58:32;19.30;54.20
2889;DHT22;1453;42.708;23.282;2022-09-20T14:01:06;19.10;54.50
2889;DHT22;1453;42.708;23.282;2022-09-20T14:04:06;19.10;56.00
2889;DHT22;1453;42.708;23.282;2022-09-20T14:06:34;19.70;56.40
2889;DHT22;1453;42.708;23.282;2022-09-20T14:09:05;19.90;56.40
2889;DHT22;1453;42.708;23.282;2022-09-20T14:11:34;19.80;57.00
2889;DHT22;1453;42.708;23.282;2022-09-20T14:14:04;19.60;57.60
2889;DHT22;1453;42.708;23.282;2022-09-20T14:16:36;19.20;57.70
2889;DHT22;1453;42.708;23.282;2022-09-20T14:19:04;19.10;58.40
2889;DHT22;1453;42.708;23.282;2022-09-20T14:21:33;19.40;59.10
2889;DHT22;1453;42.708;23.282;2022-09-20T14:24:07;19.60;59.20
2889;DHT22;1453;42.708;23.282;2022-09-20T14:29:50;19.20;57.10
2889;DHT22;1453;42.708;23.282;2022-09-20T14:37:53;18.60;56.50
2889;DHT22;1453;42.708;23.282;2022-09-20T14:40:50;18.70;57.30
2889;DHT22;1453;42.708;23.282;2022-09-20T14:43:33;19.10;57.40
2889;DHT22;1453;42.708;23.282;2022-09-20T14:46:14;19.10;58.30
2889;DHT22;1453;42.708;23.282;2022-09-20T14:48:41;18.90;59.20
2889;DHT22;1453;42.708;23.282;2022-09-20T14:51:19;18.70;59.10
2889;DHT22;1453;42.708;23.282;2022-09-20T14:53:49;18.10;58.80
2889;DHT22;1453;42.708;23.282;2022-09-20T14:56:29;18.10;59.80
2889;DHT22;1453;42.708;23.282;2022-09-20T14:59:17;18.00;59.70
2889;DHT22;1453;42.708;23.282;2022-09-20T15:04:55;17.90;61.30
2889;DHT22;1453;42.708;23.282;2022-09-20T15:07:23;18.50;60.70
2889;DHT22;1453;42.708;23.282;2022-09-20T15:09:49;18.20;60.30
2889;DHT22;1453;42.708;23.282;2022-09-20T15:12:17;18.00;61.20
2889;DHT22;1453;42.708;23.282;2022-09-20T15:14:44;17.80;62.00
2889;DHT22;1453;42.708;23.282;2022-09-20T15:17:19;18.10;62.00
2889;DHT22;1453;42.708;23.282;2022-09-20T15:19:46;18.00;62.50
2889;DHT22;1453;42.708;23.282;2022-09-20T15:22:13;18.10;63.00
2889;DHT22;1453;42.708;23.282;2022-09-20T15:24:40;17.60;64.20
2889;DHT22;1453;42.708;23.282;2022-09-20T15:27:06;16.90;65.10
2889;DHT22;1453;42.708;23.282;2022-09-20T15:29:32;16.50;66.10
2889;DHT22;1453;42.708;23.282;2022-09-20T15:31:58;16.80;66.50
2889;DHT22;1453;42.708;23.282;2022-09-20T15:34:24;17.30;66.20
2889;DHT22;1453;42.708;23.282;2022-09-20T15:36:50;16.90;65.80
2889;DHT22;1453;42.708;23.282;2022-09-20T15:39:17;16.70;67.20
2889;DHT22;1453;42.708;23.282;2022-09-20T15:41:43;16.60;66.90
2889;DHT22;1453;42.708;23.282;2022-09-20T15:44:10;17.00;67.20
2889;DHT22;1453;42.708;23.282;2022-09-20T15:46:36;16.80;66.00
2889;DHT22;1453;42.708;23.282;2022-09-20T15:49:03;16.60;66.80
2889;DHT22;1453;42.708;23.282;2022-09-20T15:51:31;16.60;67.00
2889;DHT22;1453;42.708;23.282;2022-09-20T15:53:59;16.60;67.30
2889;DHT22;1453;42.708;23.282;2022-09-20T15:56:27;16.40;67.80
2889;DHT22;1453;42.708;23.282;2022-09-20T15:59:03;16.80;68.10
2889;DHT22;1453;42.708;23.282;2022-09-20T16:01:37;16.80;67.30
2889;DHT22;1453;42.708;23.282;2022-09-20T16:04:18;16.60;69.10
2889;DHT22;1453;42.708;23.282;2022-09-20T16:06:48;16.20;68.60
2889;DHT22;1453;42.708;23.282;2022-09-20T16:09:15;15.60;69.90
2889;DHT22;1453;42.708;23.282;2022-09-20T16:11:45;15.20;71.80
2889;DHT22;1453;42.708;23.282;2022-09-20T16:14:14;15.20;72.90
2889;DHT22;1453;42.708;23.282;2022-09-20T16:16:41;14.80;74.20
2889;DHT22;1453;42.708;23.282;2022-09-20T16:19:10;14.70;76.10
2889;DHT22;1453;42.708;23.282;2022-09-20T16:21:48;14.50;76.50
2889;DHT22;1453;42.708;23.282;2022-09-20T16:24:34;14.20;78.50
2889;DHT22;1453;42.708;23.282;2022-09-20T16:27:05;14.00;82.20
2889;DHT22;1453;42.708;23.282;2022-09-20T16:29:34;14.00;83.60
2889;DHT22;1453;42.708;23.282;2022-09-20T16:32:02;13.80;86.30
2889;DHT22;1453;42.708;23.282;2022-09-20T16:34:35;13.60;90.20
2889;DHT22;1453;42.708;23.282;2022-09-20T16:37:13;13.30;92.00
2889;DHT22;1453;42.708;23.282;2022-09-20T16:39:45;13.10;94.10
2889;DHT22;1453;42.708;23.282;2022-09-20T16:42:13;13.00;96.20
2889;DHT22;1453;42.708;23.282;2022-09-20T16:44:42;12.90;98.10
2889;DHT22;1453;42.708;23.282;2022-09-20T16:47:12;12.80;99.90
2889;DHT22;1453;42.708;23.282;2022-09-20T16:49:47;12.80;99.90
2889;DHT22;1453;42.708;23.282;2022-09-20T16:52:15;12.60;99.90
2889;DHT22;1453;42.708;23.282;2022-09-20T16:54:42;12.70;99.90
2889;DHT22;1453;42.708;23.282;2022-09-20T16:57:10;12.70;99.90
2889;DHT22;1453;42.708;23.282;2022-09-20T16:59:41;12.60;99.90
2889;DHT22;1453;42.708;23.282;2022-09-20T17:02:10;12.60;99.90
2889;DHT22;1453;42.708;23.282;2022-09-20T17:04:38;12.40;99.90
2889;DHT22;1453;42.708;23.282;2022-09-20T17:07:05;12.20;99.90
2889;DHT22;1453;42.708;23.282;2022-09-20T17:09:34;11.90;99.90
2889;DHT22;1453;42.708;23.282;2022-09-20T17:12:02;12.00;99.90
2889;DHT22;1453;42.708;23.282;2022-09-20T17:14:36;11.80;99.90
2889;DHT22;1453;42.708;23.282;2022-09-20T17:17:03;11.90;99.90
2889;DHT22;1453;42.708;23.282;2022-09-20T17:19:29;11.90;99.90
2889;DHT22;1453;42.708;23.282;2022-09-20T17:21:55;11.70;99.90
2889;DHT22;1453;42.708;23.282;2022-09-20T17:24:21;11.70;99.90
2889;DHT22;1453;42.708;23.282;2022-09-20T17:26:49;11.60;99.90
2889;DHT22;1453;42.708;23.282;2022-09-20T17:29:17;11.70;99.90
2889;DHT22;1453;42.708;23.282;2022-09-20T17:31:46;11.60;99.90
2889;DHT22;1453;42.708;23.282;2022-09-20T17:34:14;11.70;99.90
2889;DHT22;1453;42.708;23.282;2022-09-20T17:36:43;11.60;99.90
2889;DHT22;1453;42.708;23.282;2022-09-20T17:39:12;11.50;99.90
2889;DHT22;1453;42.708;23.282;2022-09-20T17:41:40;11.40;99.90
2889;DHT22;1453;42.708;23.282;2022-09-20T17:44:11;11.30;99.90
2889;DHT22;1453;42.708;23.282;2022-09-20T17:46:39;11.30;99.90
2889;DHT22;1453;42.708;23.282;2022-09-20T17:49:08;11.30;99.90
2889;DHT22;1453;42.708;23.282;2022-09-20T17:51:40;11.20;99.90
2889;DHT22;1453;42.708;23.282;2022-09-20T17:54:08;11.20;99.90
2889;DHT22;1453;42.708;23.282;2022-09-20T17:56:39;11.20;99.90
2889;DHT22;1453;42.708;23.282;2022-09-20T17:59:10;11.30;99.90
2889;DHT22;1453;42.708;23.282;2022-09-20T18:01:37;11.40;99.90
2889;DHT22;1453;42.708;23.282;2022-09-20T18:04:04;11.40;99.90
2889;DHT22;1453;42.708;23.282;2022-09-20T18:06:33;11.50;99.90
2889;DHT22;1453;42.708;23.282;2022-09-20T18:09:15;11.40;99.90
2889;DHT22;1453;42.708;23.282;2022-09-20T18:11:44;11.40;99.90
2889;DHT22;1453;42.708;23.282;2022-09-20T18:14:14;11.50;99.90
2889;DHT22;1453;42.708;23.282;2022-09-20T18:16:42;11.60;99.90
2889;DHT22;1453;42.708;23.282;2022-09-20T18:19:09;11.60;99.90
2889;DHT22;1453;42.708;23.282;2022-09-20T18:21:37;11.70;99.90
2889;DHT22;1453;42.708;23.282;2022-09-20T18:24:08;11.70;99.90
2889;DHT22;1453;42.708;23.282;2022-09-20T18:26:35;11.70;99.90
2889;DHT22;1453;42.708;23.282;2022-09-20T18:29:08;11.70;99.90
2889;DHT22;1453;42.708;23.282;2022-09-20T18:31:41;11.50;99.90
2889;DHT22;1453;42.708;23.282;2022-09-20T18:34:14;11.50;99.90
2889;DHT22;1453;42.708;23.282;2022-09-20T18:36:46;11.50;99.90
2889;DHT22;1453;42.708;23.282;2022-09-20T18:39:20;11.40;99.90
2889;DHT22;1453;42.708;23.282;2022-09-20T18:41:47;11.40;99.90
2889;DHT22;1453;42.708;23.282;2022-09-20T18:44:15;11.50;99.90
2889;DHT22;1453;42.708;23.282;2022-09-20T18:46:43;11.50;99.90
2889;DHT22;1453;42.708;23.282;2022-09-20T18:49:11;11.70;99.90
2889;DHT22;1453;42.708;23.282;2022-09-20T18:51:40;11.60;99.90
2889;DHT22;1453;42.708;23.282;2022-09-20T18:54:08;11.90;99.90
2889;DHT22;1453;42.708;23.282;2022-09-20T18:56:37;11.60;99.90
2889;DHT22;1453;42.708;23.282;2022-09-20T18:59:07;11.30;99.90
2889;DHT22;1453;42.708;23.282;2022-09-20T19:04:50;11.00;99.90
2889;DHT22;1453;42.708;23.282;2022-09-20T19:07:41;11.20;99.90
2889;DHT22;1453;42.708;23.282;2022-09-20T19:13:05;11.20;99.90
2889;DHT22;1453;42.708;23.282;2022-09-20T19:24:14;11.70;99.90
2889;DHT22;1453;42.708;23.282;2022-09-20T19:26:46;11.70;99.90
2889;DHT22;1453;42.708;23.282;2022-09-20T19:29:20;11.70;99.90
2889;DHT22;1453;42.708;23.282;2022-09-20T19:31:49;11.50;99.90
2889;DHT22;1453;42.708;23.282;2022-09-20T19:34:22;11.00;99.90
2889;DHT22;1453;42.708;23.282;2022-09-20T19:45:55;11.00;99.90
2889;DHT22;1453;42.708;23.282;2022-09-20T19:50:58;10.80;99.90
2889;DHT22;1453;42.708;23.282;2022-09-20T19:53:27;10.70;99.90
2889;DHT22;1453;42.708;23.282;2022-09-20T19:55:58;10.60;99.90
2889;DHT22;1453;42.708;23.282;2022-09-20T19:58:28;10.50;99.90
2889;DHT22;1453;42.708;23.282;2022-09-20T20:00:54;10.60;99.90
2889;DHT22;1453;42.708;23.282;2022-09-20T20:03:20;11.00;99.90
2889;DHT22;1453;42.708;23.282;2022-09-20T20:06:10;11.30;99.90
2889;DHT22;1453;42.708;23.282;2022-09-20T20:20:49;10.50;99.90
2889;DHT22;1453;42.708;23.282;2022-09-20T20:23:52;9.90;99.90
2889;DHT22;1453;42.708;23.282;2022-09-20T20:26:23;9.90;99.90
2889;DHT22;1453;42.708;23.282;2022-09-20T20:28:51;10.00;99.90
2889;DHT22;1453;42.708;23.282;2022-09-20T20:31:18;9.90;99.90
2889;DHT22;1453;42.708;23.282;2022-09-20T20:33:44;10.00;99.90
2889;DHT22;1453;42.708;23.282;2022-09-20T20:36:10;10.00;99.90
2889;DHT22;1453;42.708;23.282;2022-09-20T20:38:45;9.90;99.90
2889;DHT22;1453;42.708;23.282;2022-09-20T20:41:16;10.00;99.90
2889;DHT22;1453;42.708;23.282;2022-09-20T20:43:45;10.20;99.90
2889;DHT22;1453;42.708;23.282;2022-09-20T20:46:13;10.20;99.90
2889;DHT22;1453;42.708;23.282;2022-09-20T20:48:43;10.30;99.90
2889;DHT22;1453;42.708;23.282;2022-09-20T20:51:16;10.30;99.90
2889;DHT22;1453;42.708;23.282;2022-09-20T20:53:52;10.40;99.90
2889;DHT22;1453;42.708;23.282;2022-09-20T20:56:29;10.40;99.90
2889;DHT22;1453;42.708;23.282;2022-09-20T20:58:56;10.60;99.90
2889;DHT22;1453;42.708;23.282;2022-09-20T21:01:30;10.70;99.90
2889;DHT22;1453;42.708;23.282;2022-09-20T21:03:58;10.70;99.90
2889;DHT22;1453;42.708;23.282;2022-09-20T21:06:28;10.50;99.90
2889;DHT22;1453;42.708;23.282;2022-09-20T21:08:59;10.50;99.90
2889;DHT22;1453;42.708;23.282;2022-09-20T21:11:32;10.60;99.90
2889;DHT22;1453;42.708;23.282;2022-09-20T21:14:02;10.70;99.90
2889;DHT22;1453;42.708;23.282;2022-09-20T21:16:33;10.50;99.90
2889;DHT22;1453;42.708;23.282;2022-09-20T21:19:02;10.30;99.90
2889;DHT22;1453;42.708;23.282;2022-09-20T21:23:58;10.30;99.90
2889;DHT22;1453;42.708;23.282;2022-09-20T21:26:26;10.30;99.90
2889;DHT22;1453;42.708;23.282;2022-09-20T21:28:54;10.40;99.90
2889;DHT22;1453;42.708;23.282;2022-09-20T21:31:24;10.20;99.90
2889;DHT22;1453;42.708;23.282;2022-09-20T21:33:51;10.10;99.90
2889;DHT22;1453;42.708;23.282;2022-09-20T21:36:19;10.00;99.90
2889;DHT22;1453;42.708;23.282;2022-09-20T21:38:47;10.00;99.90
2889;DHT22;1453;42.708;23.282;2022-09-20T21:43:47;9.90;99.90
2889;DHT22;1453;42.708;23.282;2022-09-20T21:46:19;9.80;99.90
2889;DHT22;1453;42.708;23.282;2022-09-20T21:48:53;9.90;99.90
2889;DHT22;1453;42.708;23.282;2022-09-20T21:51:20;9.90;99.90
2889;DHT22;1453;42.708;23.282;2022-09-20T21:53:47;9.80;99.90
2889;DHT22;1453;42.708;23.282;2022-09-20T21:56:17;9.80;99.90
2889;DHT22;1453;42.708;23.282;2022-09-20T21:58:43;9.80;99.90
2889;DHT22;1453;42.708;23.282;2022-09-20T22:03:44;9.70;99.90
2889;DHT22;1453;42.708;23.282;2022-09-20T22:06:38;9.70;99.90
2889;DHT22;1453;42.708;23.282;2022-09-20T22:09:07;9.60;99.90
2889;DHT22;1453;42.708;23.282;2022-09-20T22:11:42;9.50;99.90
2889;DHT22;1453;42.708;23.282;2022-09-20T22:14:14;9.60;99.90
2889;DHT22;1453;42.708;23.282;2022-09-20T22:16:42;9.70;99.90
2889;DHT22;1453;42.708;23.282;2022-09-20T22:19:11;9.70;99.90
2889;DHT22;1453;42.708;23.282;2022-09-20T22:21:40;9.50;99.90
2889;DHT22;1453;42.708;23.282;2022-09-20T22:24:14;9.40;99.90